Time;durP1;ratioP1;P1;durP2;ratioP2;P2;SDS_P1;SDS_P2;PMS_P1;PMS_P2;Temp;Humidity;BMP_temperature;BMP_pressure;BME280_temperature;BME280_humidity;BME280_pressure;Samples;Min_cycle;Max_cycle;Signal;HPM_P1;HPM_P2
2023/12/27 00:00:41;;;;;;;;;;;1.30;99.90;;;;;;5056975;28;20345;-92
2023/12/27 00:03:07;;;;;;;;;;;3.20;99.90;;;;;;5056746;28;19930;-92
2023/12/27 00:05:35;;;;;;;;;;;3.50;99.90;;;;;;5087641;28;19920;-92
2023/12/27 00:08:01;;;;;;;;;;;1.30;99.90;;;;;;5038728;28;20024;-91
2023/12/27 00:10:27;;;;;;;;;;;2.40;99.90;;;;;;5054878;28;19986;-92
2023/12/27 00:12:52;;;;;;;;;;;2.30;99.90;;;;;;5063740;28;20049;-92
2023/12/27 00:15:18;;;;;;;;;;;2.40;99.90;;;;;;5086320;28;19920;-92
2023/12/27 00:17:43;;;;;;;;;;;2.40;99.90;;;;;;5073801;28;19931;-92
2023/12/27 00:20:09;;;;;;;;;;;2.30;99.90;;;;;;5061994;28;19921;-92
2023/12/27 00:22:35;;;;;;;;;;;2.30;99.90;;;;;;5068456;28;19928;-92
2023/12/27 00:25:02;;;;;;;;;;;2.30;99.90;;;;;;5040498;28;19994;-92
2023/12/27 00:27:28;;;;;;;;;;;2.30;99.90;;;;;;5060029;28;19950;-92
2023/12/27 00:29:53;;;;;;;;;;;2.30;99.90;;;;;;5060308;28;19924;-92
2023/12/27 00:32:19;;;;;;;;;;;2.30;99.90;;;;;;5076573;28;19921;-92
2023/12/27 00:34:47;;;;;;;;;;;2.20;99.90;;;;;;5046216;28;20010;-92
2023/12/27 00:37:13;;;;;;;;;;;2.20;99.90;;;;;;5055376;28;19920;-93
2023/12/27 00:39:38;;;;;;;;;;;2.20;99.90;;;;;;5054048;28;19919;-92
2023/12/27 00:42:04;;;;;;;;;;;3.00;99.90;;;;;;5058808;28;19928;-92
2023/12/27 00:44:29;;;;;;;;;;;2.20;99.90;;;;;;5072144;28;19921;-92
2023/12/27 00:46:56;;;;;;;;;;;2.70;99.90;;;;;;5030178;28;20353;-92
2023/12/27 00:49:22;;;;;;;;;;;2.10;99.90;;;;;;5073071;28;19972;-92
2023/12/27 00:51:48;;;;;;;;;;;2.10;99.90;;;;;;5077886;28;20245;-92
2023/12/27 00:54:13;;;;;;;;;;;2.10;99.90;;;;;;5073568;28;19936;-93
2023/12/27 00:56:39;;;;;;;;;;;3.80;99.90;;;;;;5057350;28;20015;-92
2023/12/27 00:59:06;;;;;;;;;;;2.00;99.90;;;;;;5017778;28;19936;-93
2023/12/27 01:01:31;;;;;;;;;;;3.20;99.90;;;;;;5065893;28;19925;-93
2023/12/27 01:03:57;;;;;;;;;;;2.40;99.90;;;;;;5054608;28;19980;-92
2023/12/27 01:06:23;;;;;;;;;;;2.00;99.90;;;;;;5059133;28;19935;-92
2023/12/27 01:08:48;;;;;;;;;;;2.00;99.90;;;;;;5042284;28;19939;-93
2023/12/27 01:11:14;;;;;;;;;;;2.00;99.90;;;;;;5032909;28;19931;-92
2023/12/27 01:13:40;;;;;;;;;;;2.10;99.90;;;;;;5071565;28;19924;-92
2023/12/27 01:16:05;;;;;;;;;;;3.00;99.90;;;;;;5042685;28;19971;-92
2023/12/27 01:18:31;;;;;;;;;;;2.00;99.90;;;;;;5046414;28;20360;-92
2023/12/27 01:20:57;;;;;;;;;;;1.90;99.90;;;;;;5026942;28;19920;-92
2023/12/27 01:23:22;;;;;;;;;;;2.00;99.90;;;;;;5072838;28;19921;-93
2023/12/27 01:25:48;;;;;;;;;;;2.70;99.90;;;;;;5059527;28;19967;-93
2023/12/27 01:28:14;;;;;;;;;;;1.90;99.90;;;;;;5058522;28;20282;-92
2023/12/27 01:30:40;;;;;;;;;;;2.10;99.90;;;;;;5045096;28;19920;-92
2023/12/27 01:33:05;;;;;;;;;;;1.80;99.90;;;;;;5041579;28;19928;-93
2023/12/27 01:35:31;;;;;;;;;;;1.80;99.90;;;;;;5052494;28;19924;-92
2023/12/27 01:37:56;;;;;;;;;;;1.80;99.90;;;;;;5026352;28;20264;-92
2023/12/27 01:40:22;;;;;;;;;;;1.80;99.90;;;;;;5075573;28;19942;-93
2023/12/27 01:42:48;;;;;;;;;;;1.70;99.90;;;;;;5062195;28;19920;-92
2023/12/27 01:45:13;;;;;;;;;;;1.70;99.90;;;;;;5050481;28;19928;-92
2023/12/27 01:47:39;;;;;;;;;;;1.70;99.90;;;;;;5041746;28;19951;-91
2023/12/27 01:50:08;;;;;;;;;;;1.70;99.90;;;;;;5025277;28;19934;-93
2023/12/27 01:52:33;;;;;;;;;;;1.70;99.90;;;;;;5029667;28;19921;-91
2023/12/27 01:54:59;;;;;;;;;;;2.80;99.90;;;;;;5024580;28;19920;-92
2023/12/27 01:57:25;;;;;;;;;;;1.70;99.90;;;;;;5041600;28;19924;-92
2023/12/27 01:59:50;;;;;;;;;;;1.70;99.90;;;;;;5041797;28;19934;-92
2023/12/27 02:02:16;;;;;;;;;;;2.60;99.90;;;;;;5050457;28;19986;-93
2023/12/27 02:04:42;;;;;;;;;;;1.60;99.90;;;;;;5022059;28;19920;-93
2023/12/27 02:07:07;;;;;;;;;;;1.70;99.90;;;;;;5017126;28;20082;-92
2023/12/27 02:09:33;;;;;;;;;;;1.60;99.90;;;;;;5029308;28;19971;-92
2023/12/27 02:11:59;;;;;;;;;;;1.60;99.90;;;;;;5042638;28;19920;-91
2023/12/27 02:14:24;;;;;;;;;;;1.60;99.90;;;;;;5044210;28;19932;-92
2023/12/27 02:16:50;;;;;;;;;;;1.80;99.90;;;;;;5019691;28;20341;-93
2023/12/27 02:19:20;;;;;;;;;;;1.60;99.90;;;;;;5020804;28;19929;-92
2023/12/27 02:21:46;;;;;;;;;;;1.60;99.90;;;;;;5055858;28;20003;-92
2023/12/27 02:24:14;;;;;;;;;;;1.70;99.90;;;;;;5040001;28;19924;-92
2023/12/27 02:26:40;;;;;;;;;;;3.00;99.90;;;;;;5039312;28;20457;-92
2023/12/27 02:29:05;;;;;;;;;;;1.50;99.90;;;;;;5029913;28;19963;-92
2023/12/27 02:31:31;;;;;;;;;;;1.80;99.90;;;;;;5023768;28;19928;-93
2023/12/27 02:33:58;;;;;;;;;;;1.50;99.90;;;;;;5016888;28;19936;-92
2023/12/27 02:36:24;;;;;;;;;;;1.50;99.90;;;;;;5025383;28;19931;-93
2023/12/27 02:38:50;;;;;;;;;;;1.50;99.90;;;;;;5023959;28;19932;-92
2023/12/27 02:41:15;;;;;;;;;;;1.70;99.90;;;;;;5034082;28;19931;-92
2023/12/27 02:43:41;;;;;;;;;;;1.80;99.90;;;;;;5020696;28;20311;-92
2023/12/27 02:46:06;;;;;;;;;;;1.50;99.90;;;;;;5019733;28;20005;-93
2023/12/27 02:48:32;;;;;;;;;;;2.00;99.90;;;;;;5043469;28;19924;-93
2023/12/27 02:50:57;;;;;;;;;;;1.10;99.90;;;;;;5049647;28;19932;-91
2023/12/27 02:53:26;;;;;;;;;;;1.40;99.90;;;;;;5056994;28;19950;-93
2023/12/27 02:55:51;;;;;;;;;;;1.40;99.90;;;;;;5047714;28;19971;-92
2023/12/27 02:58:17;;;;;;;;;;;1.90;99.90;;;;;;5036669;28;19931;-92
2023/12/27 03:00:45;;;;;;;;;;;1.40;99.90;;;;;;5039245;28;19921;-92
2023/12/27 03:03:11;;;;;;;;;;;2.90;99.90;;;;;;5038291;28;19935;-92
2023/12/27 03:05:37;;;;;;;;;;;1.40;99.90;;;;;;5038781;28;20265;-92
2023/12/27 03:08:03;;;;;;;;;;;1.40;99.90;;;;;;5042509;28;19931;-93
2023/12/27 03:10:29;;;;;;;;;;;1.40;99.90;;;;;;5027380;28;19920;-92
2023/12/27 03:12:54;;;;;;;;;;;1.80;99.90;;;;;;5028378;28;19939;-93
2023/12/27 03:15:20;;;;;;;;;;;1.50;99.90;;;;;;5045741;28;19971;-92
2023/12/27 03:17:45;;;;;;;;;;;1.40;99.90;;;;;;5032138;28;19926;-93
2023/12/27 03:20:11;;;;;;;;;;;1.40;99.90;;;;;;5019611;28;19925;-92
2023/12/27 03:22:37;;;;;;;;;;;1.40;99.90;;;;;;5039361;28;19920;-92
2023/12/27 03:25:02;;;;;;;;;;;1.40;99.90;;;;;;5024210;28;19932;-92
2023/12/27 03:27:28;;;;;;;;;;;1.40;99.90;;;;;;5019527;28;20011;-92
2023/12/27 03:29:53;;;;;;;;;;;1.50;99.90;;;;;;5034146;28;19920;-93
2023/12/27 03:32:19;;;;;;;;;;;1.50;99.90;;;;;;5016165;28;19931;-92
2023/12/27 03:34:45;;;;;;;;;;;1.50;99.90;;;;;;5036083;28;20313;-92
2023/12/27 03:37:12;;;;;;;;;;;1.50;99.90;;;;;;5016754;28;19925;-91
2023/12/27 03:39:38;;;;;;;;;;;1.40;99.90;;;;;;5031054;28;20008;-92
2023/12/27 03:42:03;;;;;;;;;;;1.40;99.90;;;;;;5031178;28;19964;-92
2023/12/27 03:44:29;;;;;;;;;;;1.50;99.90;;;;;;5040144;28;20346;-92
2023/12/27 03:46:55;;;;;;;;;;;1.50;99.90;;;;;;4949569;28;1802956;-92
2023/12/27 03:49:21;;;;;;;;;;;2.00;99.90;;;;;;5034378;28;20331;-91
2023/12/27 03:51:46;;;;;;;;;;;1.50;99.90;;;;;;5056450;28;19920;-93
2023/12/27 03:54:12;;;;;;;;;;;2.50;99.90;;;;;;5022671;28;19936;-92
2023/12/27 03:56:37;;;;;;;;;;;2.50;99.90;;;;;;5047003;28;19974;-93
2023/12/27 03:59:05;;;;;;;;;;;1.60;99.90;;;;;;5021676;28;20023;-92
2023/12/27 04:01:31;;;;;;;;;;;1.60;99.90;;;;;;5024957;28;20349;-92
2023/12/27 04:03:57;;;;;;;;;;;1.60;99.90;;;;;;5037947;28;19921;-89
2023/12/27 04:06:22;;;;;;;;;;;1.60;99.90;;;;;;5053556;28;19981;-92
2023/12/27 04:08:48;;;;;;;;;;;1.60;99.90;;;;;;5053377;28;20268;-92
2023/12/27 04:11:14;;;;;;;;;;;1.60;99.90;;;;;;5019758;28;19932;-92
2023/12/27 04:13:40;;;;;;;;;;;1.70;99.90;;;;;;5036620;28;19925;-93
2023/12/27 04:16:06;;;;;;;;;;;1.60;99.90;;;;;;5023608;28;19977;-91
2023/12/27 04:18:31;;;;;;;;;;;1.70;99.90;;;;;;5039054;28;19925;-91
2023/12/27 04:20:57;;;;;;;;;;;3.30;99.90;;;;;;5023068;28;19921;-92
2023/12/27 04:23:22;;;;;;;;;;;2.60;99.90;;;;;;5023293;28;19974;-92
2023/12/27 04:25:48;;;;;;;;;;;1.80;99.90;;;;;;5046462;28;20003;-93
2023/12/27 04:28:14;;;;;;;;;;;3.30;99.90;;;;;;5062780;28;19938;-93
2023/12/27 04:30:39;;;;;;;;;;;2.10;99.90;;;;;;5027293;28;19920;-93
2023/12/27 04:33:06;;;;;;;;;;;1.60;99.90;;;;;;5039986;28;19932;-92
2023/12/27 04:35:31;;;;;;;;;;;2.90;99.90;;;;;;5046814;28;19960;-92
2023/12/27 04:37:57;;;;;;;;;;;1.70;99.90;;;;;;5020058;28;19964;-92
2023/12/27 04:40:23;;;;;;;;;;;1.70;99.90;;;;;;5045786;28;19928;-92
2023/12/27 04:42:48;;;;;;;;;;;2.30;99.90;;;;;;5038302;28;19985;-93
2023/12/27 04:45:14;;;;;;;;;;;1.70;99.90;;;;;;5062851;28;19924;-92
2023/12/27 04:47:40;;;;;;;;;;;1.80;99.90;;;;;;5054108;28;19929;-92
2023/12/27 04:50:05;;;;;;;;;;;3.40;99.90;;;;;;5051479;28;19932;-92
2023/12/27 04:52:31;;;;;;;;;;;1.80;99.90;;;;;;5032856;28;19928;-92
2023/12/27 04:54:57;;;;;;;;;;;1.70;99.90;;;;;;5025232;28;20285;-92
2023/12/27 04:57:22;;;;;;;;;;;1.80;99.90;;;;;;5051246;28;19924;-93
2023/12/27 04:59:48;;;;;;;;;;;1.70;99.90;;;;;;5026167;28;19973;-93
2023/12/27 05:02:13;;;;;;;;;;;1.70;99.90;;;;;;5023355;28;19924;-93
2023/12/27 05:04:39;;;;;;;;;;;1.80;99.90;;;;;;5023393;28;19920;-93
2023/12/27 05:07:05;;;;;;;;;;;0.40;99.90;;;;;;5055972;28;19928;-92
2023/12/27 05:09:31;;;;;;;;;;;1.70;99.90;;;;;;5033854;28;20238;-92
2023/12/27 05:11:56;;;;;;;;;;;1.70;99.90;;;;;;5055562;28;19934;-92
2023/12/27 05:14:22;;;;;;;;;;;1.80;99.90;;;;;;5040020;28;20019;-93
2023/12/27 05:16:47;;;;;;;;;;;1.90;99.90;;;;;;5039394;28;19921;-92
2023/12/27 05:19:13;;;;;;;;;;;1.70;99.90;;;;;;5039713;28;19952;-91
2023/12/27 05:21:39;;;;;;;;;;;2.80;99.90;;;;;;5055869;28;19939;-92
2023/12/27 05:24:04;;;;;;;;;;;1.90;99.90;;;;;;5040612;28;19921;-92
2023/12/27 05:26:30;;;;;;;;;;;1.70;99.90;;;;;;5031731;28;19924;-92
2023/12/27 05:28:56;;;;;;;;;;;1.80;99.90;;;;;;5037030;28;19935;-92
2023/12/27 05:31:21;;;;;;;;;;;1.70;99.90;;;;;;5048704;28;19999;-92
2023/12/27 05:33:47;;;;;;;;;;;1.70;99.90;;;;;;5043470;28;19997;-93
2023/12/27 05:36:13;;;;;;;;;;;1.70;99.90;;;;;;5027848;28;19920;-92
2023/12/27 05:38:40;;;;;;;;;;;2.30;99.90;;;;;;5063501;28;19932;-92
2023/12/27 05:41:05;;;;;;;;;;;1.70;99.90;;;;;;5057333;28;20365;-94
2023/12/27 05:43:31;;;;;;;;;;;1.40;99.90;;;;;;5026891;28;19933;-92
2023/12/27 05:45:57;;;;;;;;;;;1.80;99.90;;;;;;5040923;28;19920;-93
2023/12/27 05:48:23;;;;;;;;;;;1.70;99.90;;;;;;5051654;28;19931;-92
2023/12/27 05:50:49;;;;;;;;;;;3.30;99.90;;;;;;5035258;28;19920;-93
2023/12/27 05:53:14;;;;;;;;;;;0.40;99.90;;;;;;5027635;28;20095;-93
2023/12/27 05:55:40;;;;;;;;;;;1.30;99.90;;;;;;5033775;28;19924;-93
2023/12/27 05:58:05;;;;;;;;;;;1.90;99.90;;;;;;5028560;28;20499;-91
2023/12/27 06:00:31;;;;;;;;;;;1.90;99.90;;;;;;5022264;28;19920;-91
2023/12/27 06:02:57;;;;;;;;;;;1.90;99.90;;;;;;5042771;28;19920;-91
2023/12/27 06:05:23;;;;;;;;;;;2.00;99.90;;;;;;5028054;28;19924;-91
2023/12/27 06:07:49;;;;;;;;;;;2.00;99.90;;;;;;5030213;28;19979;-92
2023/12/27 06:10:14;;;;;;;;;;;2.00;99.90;;;;;;5044732;28;19971;-91
2023/12/27 06:12:40;;;;;;;;;;;2.00;99.90;;;;;;5020480;28;19925;-90
2023/12/27 06:15:07;;;;;;;;;;;2.00;99.90;;;;;;5023079;28;19932;-91
2023/12/27 06:17:32;;;;;;;;;;;2.00;99.90;;;;;;5059862;28;20338;-89
2023/12/27 06:19:58;;;;;;;;;;;2.00;99.90;;;;;;5028093;28;19932;-89
2023/12/27 06:22:24;;;;;;;;;;;2.20;99.90;;;;;;5025383;28;19931;-90
2023/12/27 06:24:50;;;;;;;;;;;2.30;99.90;;;;;;5025788;28;20257;-91
2023/12/27 06:27:15;;;;;;;;;;;2.00;99.90;;;;;;5040120;28;20013;-91
2023/12/27 06:29:41;;;;;;;;;;;2.30;99.90;;;;;;5041536;28;19920;-95
2023/12/27 06:32:07;;;;;;;;;;;2.10;99.90;;;;;;5027783;28;19931;-93
2023/12/27 06:34:33;;;;;;;;;;;2.10;99.90;;;;;;5015456;28;19925;-92
2023/12/27 06:36:58;;;;;;;;;;;2.10;99.90;;;;;;5023947;28;19931;-93
2023/12/27 06:39:24;;;;;;;;;;;2.10;99.90;;;;;;5024750;28;19944;-93
2023/12/27 06:41:50;;;;;;;;;;;2.90;99.90;;;;;;5023203;28;20385;-92
2023/12/27 06:44:16;;;;;;;;;;;2.10;99.90;;;;;;5022247;28;19920;-92
2023/12/27 06:46:41;;;;;;;;;;;2.10;99.90;;;;;;5059022;28;20317;-91
2023/12/27 06:49:07;;;;;;;;;;;2.30;99.90;;;;;;5049829;28;20068;-90
2023/12/27 06:51:33;;;;;;;;;;;1.20;99.90;;;;;;5078525;28;19920;-91
2023/12/27 06:53:58;;;;;;;;;;;2.10;99.90;;;;;;5062885;28;19925;-90
2023/12/27 06:56:24;;;;;;;;;;;3.70;99.90;;;;;;5058442;28;19986;-90
2023/12/27 06:58:50;;;;;;;;;;;2.20;99.90;;;;;;5049508;28;19927;-92
2023/12/27 07:01:15;;;;;;;;;;;2.60;99.90;;;;;;5045106;28;19974;-92
2023/12/27 07:03:41;;;;;;;;;;;2.30;99.90;;;;;;5076517;28;19927;-92
2023/12/27 07:06:07;;;;;;;;;;;2.30;99.90;;;;;;5039255;28;19920;-91
2023/12/27 07:08:33;;;;;;;;;;;2.30;99.90;;;;;;5050190;28;19928;-91
2023/12/27 07:10:59;;;;;;;;;;;2.30;99.90;;;;;;5042027;28;19927;-89
2023/12/27 07:13:24;;;;;;;;;;;2.40;99.90;;;;;;5049847;28;20010;-92
2023/12/27 07:15:50;;;;;;;;;;;2.30;99.90;;;;;;5062399;28;19945;-91
2023/12/27 07:18:15;;;;;;;;;;;2.50;99.90;;;;;;5044726;28;19927;-91
2023/12/27 07:20:41;;;;;;;;;;;1.00;99.90;;;;;;5062294;28;19920;-91
2023/12/27 07:23:07;;;;;;;;;;;2.90;99.90;;;;;;5053716;28;19924;-91
2023/12/27 07:25:32;;;;;;;;;;;2.30;99.90;;;;;;5064202;28;20007;-92
2023/12/27 07:27:58;;;;;;;;;;;2.50;99.90;;;;;;5088192;28;19945;-90
2023/12/27 07:30:24;;;;;;;;;;;2.40;99.90;;;;;;5061864;28;19920;-91
2023/12/27 07:32:49;;;;;;;;;;;2.40;99.90;;;;;;5088034;28;20507;-91
2023/12/27 07:35:15;;;;;;;;;;;2.40;99.90;;;;;;5041803;28;20331;-92
2023/12/27 07:37:42;;;;;;;;;;;2.50;99.90;;;;;;5041962;28;19920;-89
2023/12/27 07:40:09;;;;;;;;;;;2.40;99.90;;;;;;5057728;28;19920;-90
2023/12/27 07:42:35;;;;;;;;;;;2.50;99.90;;;;;;5074837;28;20386;-90
2023/12/27 07:45:00;;;;;;;;;;;2.50;99.90;;;;;;5078053;28;19920;-90
2023/12/27 07:47:26;;;;;;;;;;;1.20;99.90;;;;;;5077207;28;19928;-90
2023/12/27 07:49:52;;;;;;;;;;;2.70;99.90;;;;;;5078999;28;19931;-90
2023/12/27 07:52:17;;;;;;;;;;;2.60;99.90;;;;;;5073615;28;20020;-90
2023/12/27 07:54:43;;;;;;;;;;;2.60;99.90;;;;;;5077155;28;19928;-90
2023/12/27 07:57:09;;;;;;;;;;;2.60;99.90;;;;;;5080032;28;19920;-89
2023/12/27 07:59:34;;;;;;;;;;;2.60;99.90;;;;;;5054174;28;19998;-91
2023/12/27 08:02:00;;;;;;;;;;;3.60;99.90;;;;;;5084426;28;20319;-90
2023/12/27 08:04:26;;;;;;;;;;;2.70;99.90;;;;;;5075589;28;19921;-91
2023/12/27 08:06:52;;;;;;;;;;;2.70;99.90;;;;;;5052551;28;19920;-92
2023/12/27 08:09:18;;;;;;;;;;;2.70;99.90;;;;;;5044506;28;19967;-91
2023/12/27 08:11:44;;;;;;;;;;;2.70;99.90;;;;;;5043208;28;19920;-92
2023/12/27 08:14:10;;;;;;;;;;;3.30;99.90;;;;;;5089993;28;20352;-90
2023/12/27 08:16:35;;;;;;;;;;;1.50;99.90;;;;;;5065996;28;20073;-90
2023/12/27 08:19:01;;;;;;;;;;;2.80;99.90;;;;;;5060186;28;19931;-91
2023/12/27 08:21:27;;;;;;;;;;;2.80;99.90;;;;;;5047423;28;19931;-90
2023/12/27 08:23:53;;;;;;;;;;;3.00;99.90;;;;;;5083463;28;20017;-90
2023/12/27 08:26:19;;;;;;;;;;;1.80;99.90;;;;;;5074997;28;19969;-91
2023/12/27 08:28:45;;;;;;;;;;;2.90;99.90;;;;;;5056597;28;20275;-89
2023/12/27 08:31:12;;;;;;;;;;;3.00;99.90;;;;;;5087805;28;19927;-90
2023/12/27 08:33:38;;;;;;;;;;;3.10;99.90;;;;;;5075981;28;19935;-91
2023/12/27 08:36:04;;;;;;;;;;;3.00;99.90;;;;;;5083579;28;19950;-92
2023/12/27 08:38:30;;;;;;;;;;;3.10;99.90;;;;;;5048073;28;19920;-92
2023/12/27 08:40:56;;;;;;;;;;;3.10;99.90;;;;;;5046302;28;19985;-87
2023/12/27 08:43:27;;;;;;;;;;;3.20;99.90;;;;;;5088423;28;20264;-87
2023/12/27 08:45:53;;;;;;;;;;;3.00;99.90;;;;;;5049273;28;19968;-93
2023/12/27 08:48:19;;;;;;;;;;;3.20;99.90;;;;;;5069222;28;19928;-90
2023/12/27 08:50:44;;;;;;;;;;;3.20;99.90;;;;;;5046520;28;19933;-90
2023/12/27 08:53:11;;;;;;;;;;;3.30;99.90;;;;;;5035612;28;19936;-90
2023/12/27 08:55:37;;;;;;;;;;;3.30;99.90;;;;;;5052936;28;19921;-92
2023/12/27 08:58:03;;;;;;;;;;;3.30;99.90;;;;;;5031568;28;19920;-92
2023/12/27 09:00:28;;;;;;;;;;;3.30;99.90;;;;;;5035542;28;20350;-92
2023/12/27 09:02:54;;;;;;;;;;;3.40;99.90;;;;;;5022111;28;19920;-93
2023/12/27 09:05:20;;;;;;;;;;;3.40;99.90;;;;;;5038902;28;19976;-92
2023/12/27 09:07:46;;;;;;;;;;;3.40;99.90;;;;;;5035100;28;19935;-92
2023/12/27 09:10:12;;;;;;;;;;;3.40;99.90;;;;;;5019201;28;19977;-92
2023/12/27 09:12:38;;;;;;;;;;;3.40;99.90;;;;;;5043726;28;19920;-92
2023/12/27 09:15:05;;;;;;;;;;;3.50;99.90;;;;;;5042135;28;19921;-88
2023/12/27 09:17:31;;;;;;;;;;;3.70;99.90;;;;;;5035354;28;19950;-88
2023/12/27 09:19:57;;;;;;;;;;;3.70;99.90;;;;;;5038938;28;20365;-90
2023/12/27 09:22:22;;;;;;;;;;;2.90;99.90;;;;;;5022881;28;19921;-91
2023/12/27 09:24:48;;;;;;;;;;;3.60;99.90;;;;;;5039249;28;19939;-91
2023/12/27 09:27:17;;;;;;;;;;;3.70;99.90;;;;;;5026436;28;19920;-91
2023/12/27 09:29:43;;;;;;;;;;;3.70;99.90;;;;;;5055593;28;19931;-91
2023/12/27 09:32:09;;;;;;;;;;;3.80;99.90;;;;;;5043482;28;19920;-90
2023/12/27 09:34:35;;;;;;;;;;;4.30;99.90;;;;;;5042147;28;19940;-89
2023/12/27 09:37:03;;;;;;;;;;;3.80;99.90;;;;;;5036393;28;20057;-89
2023/12/27 09:39:29;;;;;;;;;;;4.00;99.90;;;;;;5027080;28;19924;-87
2023/12/27 09:41:55;;;;;;;;;;;;;;;;;;5039698;28;19975;-89
2023/12/27 09:44:21;;;;;;;;;;;4.00;99.90;;;;;;5039891;28;19978;-88
2023/12/27 09:46:47;;;;;;;;;;;3.90;99.90;;;;;;5028232;28;20376;-92
2023/12/27 09:49:12;;;;;;;;;;;4.30;99.90;;;;;;5042037;28;20334;-92
2023/12/27 09:51:39;;;;;;;;;;;4.00;99.90;;;;;;5076708;28;19921;-92
2023/12/27 09:54:04;;;;;;;;;;;4.00;99.90;;;;;;5060343;28;19924;-93
2023/12/27 09:56:31;;;;;;;;;;;4.50;99.90;;;;;;5055771;28;19952;-90
2023/12/27 09:59:00;;;;;;;;;;;4.10;99.90;;;;;;5044230;28;19958;-88
2023/12/27 10:01:29;;;;;;;;;;;4.00;99.90;;;;;;5056312;28;19994;-90
2023/12/27 10:04:06;;;;;;;;;;;4.10;99.90;;;;;;5062234;28;20528;-91
2023/12/27 10:06:43;;;;;;;;;;;4.10;99.90;;;;;;5058832;28;19920;-91
2023/12/27 10:09:09;;;;;;;;;;;4.20;99.90;;;;;;5054672;28;20008;-92
2023/12/27 10:11:35;;;;;;;;;;;4.10;99.90;;;;;;5087076;28;20181;-91
2023/12/27 10:14:04;;;;;;;;;;;4.10;99.90;;;;;;5082473;28;20528;-91
2023/12/27 10:16:30;;;;;;;;;;;4.20;99.90;;;;;;5056079;28;19973;-94
2023/12/27 10:18:57;;;;;;;;;;;4.10;99.90;;;;;;5056069;28;19928;-90
2023/12/27 10:21:22;;;;;;;;;;;4.10;99.90;;;;;;5043887;28;20367;-88
2023/12/27 10:23:48;;;;;;;;;;;4.20;99.90;;;;;;5054730;28;19920;-91
2023/12/27 10:26:14;;;;;;;;;;;4.30;99.90;;;;;;5040851;28;19927;-90
2023/12/27 10:28:39;;;;;;;;;;;4.00;99.90;;;;;;5066630;28;20318;-90
2023/12/27 10:31:05;;;;;;;;;;;4.20;99.90;;;;;;5051772;28;20376;-94
2023/12/27 10:33:44;;;;;;;;;;;4.30;99.90;;;;;;5053143;28;19971;-91
2023/12/27 10:36:10;;;;;;;;;;;4.20;99.90;;;;;;5057485;28;20368;-91
2023/12/27 10:38:37;;;;;;;;;;;5.30;99.90;;;;;;5082636;28;19928;-90
2023/12/27 10:41:04;;;;;;;;;;;5.30;99.90;;;;;;5052965;28;20014;-88
2023/12/27 10:43:31;;;;;;;;;;;4.40;99.90;;;;;;5059994;28;19921;-94
2023/12/27 10:45:58;;;;;;;;;;;5.80;99.90;;;;;;5055357;28;20020;-93
2023/12/27 10:48:24;;;;;;;;;;;;;;;;;;5067343;28;20424;-94
2023/12/27 10:50:50;;;;;;;;;;;4.50;99.90;;;;;;5041539;28;20025;-92
2023/12/27 10:53:18;;;;;;;;;;;4.30;99.90;;;;;;5015894;28;20078;-93
2023/12/27 10:55:44;;;;;;;;;;;;;;;;;;5036471;28;19921;-90
2023/12/27 10:58:20;;;;;;;;;;;4.60;99.90;;;;;;5032492;28;19931;-87
2023/12/27 11:00:49;;;;;;;;;;;4.70;99.90;;;;;;5028936;28;19939;-92
2023/12/27 11:03:16;;;;;;;;;;;4.70;99.90;;;;;;5036841;28;20435;-91
2023/12/27 11:05:42;;;;;;;;;;;4.80;99.90;;;;;;5033756;28;19928;-92
2023/12/27 11:08:10;;;;;;;;;;;5.10;99.90;;;;;;5023544;28;19928;-93
2023/12/27 11:10:37;;;;;;;;;;;4.90;99.90;;;;;;5033279;28;20427;-93
2023/12/27 11:13:04;;;;;;;;;;;4.90;99.90;;;;;;5037162;28;19928;-90
2023/12/27 11:15:31;;;;;;;;;;;4.90;99.90;;;;;;5022603;28;20300;-87
2023/12/27 11:17:57;;;;;;;;;;;;;;;;;;5033660;28;19920;-92
2023/12/27 11:20:23;;;;;;;;;;;5.10;99.90;;;;;;5027217;28;20328;-86
2023/12/27 11:22:49;;;;;;;;;;;5.50;99.90;;;;;;5052778;28;19920;-89
2023/12/27 11:25:16;;;;;;;;;;;5.10;99.90;;;;;;5032437;28;20261;-89
2023/12/27 11:27:42;;;;;;;;;;;5.10;99.90;;;;;;5018181;28;19924;-91
2023/12/27 11:30:11;;;;;;;;;;;5.30;99.90;;;;;;5053819;28;19920;-88
2023/12/27 11:32:39;;;;;;;;;;;5.40;99.90;;;;;;5051701;28;19920;-90
2023/12/27 11:35:06;;;;;;;;;;;;;;;;;;5033850;28;19935;-91
2023/12/27 11:37:32;;;;;;;;;;;;;;;;;;5051953;28;19964;-91
2023/12/27 11:39:58;;;;;;;;;;;;;;;;;;5025038;28;20279;-90
2023/12/27 11:42:24;;;;;;;;;;;5.30;99.90;;;;;;5021080;28;20346;-90
2023/12/27 11:44:55;;;;;;;;;;;;;;;;;;5051519;28;19956;-91
2023/12/27 11:47:22;;;;;;;;;;;;;;;;;;5022415;28;19925;-93
2023/12/27 11:49:48;;;;;;;;;;;;;;;;;;5035987;28;19971;-90
2023/12/27 11:52:16;;;;;;;;;;;;;;;;;;5054260;28;20246;-85
2023/12/27 11:54:42;;;;;;;;;;;;;;;;;;5030349;28;19928;-88
2023/12/27 11:57:10;;;;;;;;;;;;;;;;;;5045640;28;19924;-86
2023/12/27 11:59:36;;;;;;;;;;;;;;;;;;5036185;28;19928;-91
2023/12/27 12:02:02;;;;;;;;;;;;;;;;;;5038880;28;19932;-86
2023/12/27 12:04:29;;;;;;;;;;;;;;;;;;5037990;28;19920;-91
2023/12/27 12:06:55;;;;;;;;;;;;;;;;;;5040721;28;19931;-91
2023/12/27 12:09:21;;;;;;;;;;;;;;;;;;5059412;28;19928;-87
2023/12/27 12:11:47;;;;;;;;;;;;;;;;;;5045579;28;19948;-91
2023/12/27 12:14:13;;;;;;;;;;;;;;;;;;5033972;28;19924;-90
2023/12/27 12:16:39;;;;;;;;;;;;;;;;;;5035745;28;19920;-89
2023/12/27 12:19:08;;;;;;;;;;;;;;;;;;5048744;28;19931;-91
2023/12/27 12:21:34;;;;;;;;;;;;;;;;;;5049831;28;21007;-90
2023/12/27 12:24:00;;;;;;;;;;;;;;;;;;5040841;28;19921;-92
2023/12/27 12:26:26;;;;;;;;;;;;;;;;;;5034852;28;19928;-87
2023/12/27 12:28:52;;;;;;;;;;;;;;;;;;5037673;28;19928;-89
2023/12/27 12:31:18;;;;;;;;;;;;;;;;;;5031595;28;19977;-87
2023/12/27 12:33:44;;;;;;;;;;;;;;;;;;5037215;28;20367;-87
2023/12/27 12:36:10;;;;;;;;;;;;;;;;;;5055774;28;20016;-87
2023/12/27 12:38:36;;;;;;;;;;;;;;;;;;5047759;28;20007;-91
2023/12/27 12:41:02;;;;;;;;;;;;;;;;;;5039978;28;20003;-90
2023/12/27 12:43:28;;;;;;;;;;;;;;;;;;5032864;28;20630;-91
2023/12/27 12:45:57;;;;;;;;;;;;;;;;;;5033279;28;20254;-85
2023/12/27 12:48:23;;;;;;;;;;;;;;;;;;5050131;28;19971;-88
2023/12/27 12:50:49;;;;;;;;;;;;;;;;;;5044860;28;19975;-89
2023/12/27 12:53:15;;;;;;;;;;;;;;;;;;5035319;28;19935;-91
2023/12/27 12:55:44;;;;;;;;;;;;;;;;;;5031001;28;19978;-90
2023/12/27 12:58:10;;;;;;;;;;;;;;;;;;5036633;28;19970;-92
2023/12/27 13:00:36;;;;;;;;;;;;;;;;;;5037527;28;20358;-88
2023/12/27 13:03:02;;;;;;;;;;;;;;;;;;5033634;28;19951;-92
2023/12/27 13:05:28;;;;;;;;;;;;;;;;;;5035374;28;19921;-87
2023/12/27 13:07:54;;;;;;;;;;;;;;;;;;5037329;28;20420;-87
2023/12/27 13:10:20;;;;;;;;;;;;;;;;;;5053723;28;20088;-90
2023/12/27 13:12:46;;;;;;;;;;;;;;;;;;5039565;28;20342;-91
2023/12/27 13:15:13;;;;;;;;;;;;;;;;;;5050290;28;19925;-87
2023/12/27 13:17:39;;;;;;;;;;;;;;;;;;5043845;28;19920;-87
2023/12/27 13:20:07;;;;;;;;;;;;;;;;;;5036544;28;19935;-88
2023/12/27 13:22:33;;;;;;;;;;;;;;;;;;5035321;28;20023;-87
2023/12/27 13:24:59;;;;;;;;;;;;;;;;;;5031703;28;19982;-92
2023/12/27 13:27:24;;;;;;;;;;;5.30;99.90;;;;;;5042276;28;19932;-91
2023/12/27 13:29:50;;;;;;;;;;;5.20;99.90;;;;;;5038363;28;20137;-91
2023/12/27 13:32:16;;;;;;;;;;;5.10;99.90;;;;;;5028993;28;19986;-88
2023/12/27 13:34:42;;;;;;;;;;;5.30;99.90;;;;;;5033960;28;19934;-90
2023/12/27 13:37:08;;;;;;;;;;;5.20;99.90;;;;;;5021432;28;19920;-90
2023/12/27 13:39:33;;;;;;;;;;;5.30;99.90;;;;;;5048957;28;20017;-91
2023/12/27 13:41:59;;;;;;;;;;;5.30;99.90;;;;;;5031515;28;20003;-89
2023/12/27 13:44:25;;;;;;;;;;;5.20;99.90;;;;;;5029337;28;19932;-89
2023/12/27 13:46:50;;;;;;;;;;;5.30;99.90;;;;;;5021804;28;19924;-90
2023/12/27 13:49:16;;;;;;;;;;;5.20;99.90;;;;;;5016864;28;19968;-91
2023/12/27 13:51:42;;;;;;;;;;;5.30;99.90;;;;;;5066297;28;19999;-89
2023/12/27 13:54:07;;;;;;;;;;;5.30;99.90;;;;;;5040238;28;20006;-90
2023/12/27 13:56:35;;;;;;;;;;;5.30;99.90;;;;;;5058422;28;19920;-91
2023/12/27 13:59:02;;;;;;;;;;;5.30;99.90;;;;;;5061410;28;19927;-90
2023/12/27 14:01:28;;;;;;;;;;;5.50;99.90;;;;;;5062202;28;19935;-89
2023/12/27 14:03:55;;;;;;;;;;;5.40;99.90;;;;;;5072554;28;19992;-91
2023/12/27 14:06:21;;;;;;;;;;;5.50;99.90;;;;;;5053066;28;19925;-91
2023/12/27 14:08:47;;;;;;;;;;;5.40;99.90;;;;;;5072880;28;20035;-94
2023/12/27 14:11:13;;;;;;;;;;;5.60;99.90;;;;;;5093514;28;19920;-91
2023/12/27 14:13:39;;;;;;;;;;;5.50;99.90;;;;;;5078118;28;20357;-92
2023/12/27 14:16:04;;;;;;;;;;;5.50;99.90;;;;;;5042585;28;20003;-90
2023/12/27 14:18:30;;;;;;;;;;;5.60;99.90;;;;;;5052188;28;20004;-91
2023/12/27 14:20:55;;;;;;;;;;;5.80;99.90;;;;;;5053319;28;19938;-91
2023/12/27 14:23:21;;;;;;;;;;;5.60;99.90;;;;;;5056773;28;19928;-90
2023/12/27 14:25:47;;;;;;;;;;;5.60;99.90;;;;;;5041991;28;20019;-89
2023/12/27 14:28:12;;;;;;;;;;;5.70;99.90;;;;;;5046519;28;20367;-93
2023/12/27 14:30:38;;;;;;;;;;;5.60;99.90;;;;;;5038471;28;19920;-90
2023/12/27 14:33:04;;;;;;;;;;;5.80;99.90;;;;;;5070938;28;19960;-92
2023/12/27 14:35:29;;;;;;;;;;;5.80;99.90;;;;;;5040409;28;19925;-90
2023/12/27 14:37:55;;;;;;;;;;;5.70;99.90;;;;;;5062878;28;19932;-92